»·PEaware :: AAL614 KSAT-KMBS

AAL614 :: KSAT-KMBS

FLIGHT INFORMATION

Flight Status: Arrived
Operator:
American Airlines
More flights by this operator :: More flights under this callsign
Pilot: John H. (7647)
Aircraft: BOEING 737-800
(B738)
More flights by this aircraft type
Origin: KSAT San Antonio Intl
United States
Destination: KMBS Mbs Intl
United States
More flights between these airports :: More routes between these airports
Route: ALAMO2 AGJ FSM Q27 ZALDA STL J101 SPI HASTE
File this flight plan on PilotEdge
Remarks: PBN / A1B1C1D1S1S2 DOF / 181011 REG / N806SB EET / KZFW0021 KZME0052 KZKC0110 KZAU0140 KZOB0214 OPR / AAL PER / C RMK / TCAS SIMBRIEF
Altitude:
(Current/Filed)
35,000ft
Speed:
(Current/Filed)
453kts
Departed: 11-Oct-18 08:21 AM
Arrived: 11-Oct-18 11:49 AM
Distance/Time
Traveled:
1086nm/3:27
Distance/Time
To Go:
Arrived

Flight Plot

Page will automatically refresh every two minutes.

Flight plan parsing failed; only flown route is shown


Map Options




Map Legend


Flown Route
Filed Route
Departure Airport
Arrival Airport
Navaid (VOR, NDB)
Fix

Horizontal Profiles

Position Reports

Time Latitude Longitude Heading Altitude Ground
Speed
11-Oct-18 08:13 29.527963 -98.470375 167 816ft 0kts
11-Oct-18 08:14 29.527963 -98.470375 167 816ft 0kts
11-Oct-18 08:15 29.527963 -98.470375 167 816ft 0kts
11-Oct-18 08:16 29.527964 -98.470375 167 816ft 0kts
11-Oct-18 08:17 29.528284 -98.470435 170 817ft 2kts
11-Oct-18 08:18 29.528772 -98.470531 137 816ft 0kts
11-Oct-18 08:19 29.528809 -98.470581 132 816ft 0kts
11-Oct-18 08:20 29.528648 -98.470368 130 816ft 3kts
11-Oct-18 08:21 29.527120 -98.468441 152 816ft 13kts
11-Oct-18 08:22 29.523497 -98.470042 119 816ft 11kts
11-Oct-18 08:23 29.534299 -98.459034 40 817ft 144kts
11-Oct-18 08:35 29.527963 -98.470375 167 816ft 0kts
11-Oct-18 08:36 29.527964 -98.470375 167 817ft 0kts
11-Oct-18 08:37 29.528425 -98.470442 171 817ft 2kts
11-Oct-18 08:38 29.528808 -98.470565 132 817ft 0kts
11-Oct-18 08:39 29.528809 -98.470567 132 816ft 0kts
11-Oct-18 08:40 29.528809 -98.470567 132 816ft 0kts
11-Oct-18 08:41 29.528809 -98.470567 132 816ft 0kts
11-Oct-18 08:42 29.528809 -98.470567 132 816ft 0kts
11-Oct-18 08:43 29.528809 -98.470567 132 816ft 0kts
11-Oct-18 08:44 29.528809 -98.470567 132 816ft 0kts
11-Oct-18 08:45 29.527886 -98.469418 131 816ft 12kts
11-Oct-18 08:46 29.524281 -98.470610 190 816ft 15kts
11-Oct-18 08:47 29.530707 -98.462613 40 817ft 126kts
11-Oct-18 08:48 29.564263 -98.424735 41 2473ft 179kts
11-Oct-18 08:49 29.601889 -98.417601 320 4380ft 149kts
11-Oct-18 08:50 29.644667 -98.452112 322 5242ft 231kts
11-Oct-18 08:51 29.714076 -98.451465 13 7585ft 282kts
11-Oct-18 08:52 29.787881 -98.432125 6 10107ft 297kts
11-Oct-18 08:53 29.872728 -98.414613 6 12293ft 325kts
11-Oct-18 08:54 29.962992 -98.395985 6 14771ft 337kts
11-Oct-18 08:55 30.056205 -98.376774 7 17045ft 349kts
11-Oct-18 08:56 30.151182 -98.357235 7 19119ft 360kts
11-Oct-18 08:57 30.250670 -98.336656 7 21068ft 371kts
11-Oct-18 08:58 30.353564 -98.315432 7 22874ft 381kts
11-Oct-18 08:59 30.440728 -98.297376 7 24253ft 389kts
11-Oct-18 09:00 30.566719 -98.271206 7 26042ft 401kts
11-Oct-18 09:01 30.677150 -98.248204 7 27438ft 410kts
11-Oct-18 09:02 30.771147 -98.228623 7 28539ft 417kts
11-Oct-18 09:03 30.904480 -98.200727 7 30229ft 418kts
11-Oct-18 09:04 30.998942 -98.180956 7 31442ft 415kts
11-Oct-18 09:05 31.109290 -98.157752 7 32738ft 413kts
11-Oct-18 09:06 31.224788 -98.107594 33 33981ft 419kts
11-Oct-18 09:07 31.302513 -98.040777 34 34786ft 421kts
11-Oct-18 09:08 31.399675 -97.956710 34 34787ft 450kts
11-Oct-18 09:09 31.501997 -97.867964 34 34775ft 462kts
11-Oct-18 09:10 31.604669 -97.778681 34 34780ft 461kts
11-Oct-18 09:11 31.707026 -97.689327 34 34780ft 461kts
11-Oct-18 09:12 31.806611 -97.602082 34 34779ft 461kts
11-Oct-18 09:13 31.908943 -97.512134 34 34779ft 462kts
11-Oct-18 09:14 32.011743 -97.421466 34 34778ft 461kts
11-Oct-18 09:15 32.109406 -97.335040 35 34778ft 461kts
11-Oct-18 09:16 32.208745 -97.246880 35 34778ft 462kts
11-Oct-18 09:17 32.307067 -97.159275 35 34773ft 462kts
11-Oct-18 09:18 32.424285 -97.054453 35 34344ft 469kts
11-Oct-18 09:19 32.500094 -96.964165 55 32214ft 466kts
11-Oct-18 09:20 32.571579 -96.861793 25 34721ft 381kts
11-Oct-18 09:21 32.675174 -96.833523 12 34812ft 404kts
11-Oct-18 09:22 32.769539 -96.755181 52 34802ft 444kts
11-Oct-18 09:23 32.864294 -96.656989 34 34780ft 461kts
11-Oct-18 09:24 32.966267 -96.564763 35 34778ft 462kts
11-Oct-18 09:25 33.067805 -96.472051 35 34778ft 462kts
11-Oct-18 09:26 33.167845 -96.377869 40 33009ft 477kts
11-Oct-18 09:27 33.234769 -96.249090 80 30061ft 479kts
11-Oct-18 09:28 33.192798 -96.108688 143 27250ft 454kts
11-Oct-18 09:29 33.077330 -96.088849 207 24118ft 424kts
11-Oct-18 09:30 33.012014 -96.189896 259 22839ft 389kts
11-Oct-18 09:31 33.027336 -96.326738 285 23341ft 437kts
11-Oct-18 09:32 33.093639 -96.429710 333 23655ft 394kts
11-Oct-18 09:33 33.203109 -96.435501 17 25583ft 411kts
11-Oct-18 09:34 33.291693 -96.347787 59 27204ft 429kts
11-Oct-18 09:35 33.334743 -96.215979 58 29189ft 423kts
11-Oct-18 09:36 33.420638 -96.129197 16 30925ft 407kts
11-Oct-18 09:37 33.516999 -96.060460 39 32142ft 420kts
11-Oct-18 09:38 33.608229 -95.973419 35 33149ft 430kts
11-Oct-18 09:39 33.703312 -95.884928 35 34155ft 438kts
11-Oct-18 09:40 33.800749 -95.793908 35 34786ft 455kts
11-Oct-18 09:41 33.898302 -95.702395 35 34787ft 433kts
11-Oct-18 09:42 33.993883 -95.612528 35 34779ft 437kts
11-Oct-18 09:43 34.089409 -95.522473 35 34778ft 437kts
11-Oct-18 09:44 34.183506 -95.433506 35 34780ft 437kts
11-Oct-18 09:45 34.277807 -95.344028 36 34779ft 437kts
11-Oct-18 09:46 34.372521 -95.253998 36 34777ft 437kts
11-Oct-18 09:47 34.468073 -95.162896 36 34774ft 437kts
11-Oct-18 09:48 34.563075 -95.072002 36 34777ft 437kts
11-Oct-18 09:49 34.658290 -94.980628 36 34787ft 440kts
11-Oct-18 09:50 34.751991 -94.890441 36 34791ft 425kts
11-Oct-18 09:51 34.844688 -94.800996 36 34779ft 426kts
11-Oct-18 09:52 34.936831 -94.711834 36 34780ft 426kts
11-Oct-18 09:53 35.028775 -94.622631 36 34779ft 426kts
11-Oct-18 09:54 35.116996 -94.536815 36 34776ft 426kts
11-Oct-18 09:55 35.209487 -94.446590 36 34780ft 426kts
11-Oct-18 09:56 35.301727 -94.356386 36 34786ft 426kts
11-Oct-18 09:57 35.392265 -94.267614 36 34778ft 427kts
11-Oct-18 09:58 35.486452 -94.181028 34 34775ft 426kts
11-Oct-18 09:59 35.581011 -94.093803 34 34775ft 426kts
11-Oct-18 10:00 35.675373 -94.006392 34 34777ft 426kts
11-Oct-18 10:01 35.769933 -93.918558 34 34777ft 426kts
11-Oct-18 10:02 35.864113 -93.830790 34 34778ft 426kts
11-Oct-18 10:03 35.958365 -93.742691 34 34776ft 426kts
11-Oct-18 10:04 36.052606 -93.654320 34 34782ft 426kts
11-Oct-18 10:05 36.143067 -93.561745 39 34779ft 427kts
11-Oct-18 10:06 36.232331 -93.465252 38 34781ft 427kts
11-Oct-18 10:07 36.321850 -93.368576 38 34782ft 427kts
11-Oct-18 10:08 36.409298 -93.273956 39 34778ft 427kts
11-Oct-18 10:09 36.498422 -93.177163 39 34776ft 427kts
11-Oct-18 10:10 36.587675 -93.079855 39 34777ft 427kts
11-Oct-18 10:11 36.676693 -92.982443 39 34776ft 427kts
11-Oct-18 10:12 36.765660 -92.884745 39 34780ft 427kts
11-Oct-18 10:13 36.854806 -92.786494 39 34777ft 428kts
11-Oct-18 10:14 36.943537 -92.688336 39 34775ft 427kts
11-Oct-18 10:15 37.032199 -92.589930 39 34779ft 427kts
11-Oct-18 10:16 37.119866 -92.492239 39 34777ft 427kts
11-Oct-18 10:17 37.208669 -92.392994 39 34782ft 428kts
11-Oct-18 10:18 37.295953 -92.295108 40 34777ft 428kts
11-Oct-18 10:19 37.384586 -92.195357 39 34774ft 428kts
11-Oct-18 10:20 37.472868 -92.095625 40 34775ft 428kts
11-Oct-18 10:21 37.560921 -91.995784 40 34781ft 428kts
11-Oct-18 10:22 37.649324 -91.895196 39 34780ft 428kts
11-Oct-18 10:23 37.737402 -91.794661 40 34780ft 428kts
11-Oct-18 10:24 37.825271 -91.694028 40 34778ft 428kts
11-Oct-18 10:25 37.912843 -91.593380 40 34782ft 428kts
11-Oct-18 10:26 38.000719 -91.492044 40 34782ft 428kts
11-Oct-18 10:27 38.088234 -91.390763 40 34782ft 428kts
11-Oct-18 10:28 38.172830 -91.292592 40 34777ft 428kts
11-Oct-18 10:29 38.260177 -91.190885 40 34778ft 428kts
11-Oct-18 10:30 38.347890 -91.088385 40 34778ft 428kts
11-Oct-18 10:31 38.435347 -90.985846 40 34774ft 428kts
11-Oct-18 10:32 38.522513 -90.883235 40 34779ft 428kts
11-Oct-18 10:33 38.609736 -90.780273 40 34777ft 428kts
11-Oct-18 10:34 38.696996 -90.676966 40 34783ft 428kts
11-Oct-18 10:35 38.784180 -90.573390 40 34781ft 428kts
11-Oct-18 10:36 38.872595 -90.472212 31 34785ft 426kts
11-Oct-18 10:37 38.972470 -90.391604 29 34780ft 425kts
11-Oct-18 10:38 39.072010 -90.310830 30 34781ft 426kts
11-Oct-18 10:39 39.163424 -90.236331 30 34772ft 425kts
11-Oct-18 10:40 39.263292 -90.154701 30 34779ft 426kts
11-Oct-18 10:41 39.362934 -90.072900 30 34777ft 426kts
11-Oct-18 10:42 39.462674 -89.990718 30 34776ft 426kts
11-Oct-18 10:43 39.562170 -89.908495 30 34778ft 426kts
11-Oct-18 10:44 39.661686 -89.825956 30 34777ft 426kts
11-Oct-18 10:45 39.760995 -89.743308 30 34777ft 425kts
11-Oct-18 10:46 39.856446 -89.652884 45 34794ft 429kts
11-Oct-18 10:47 39.935518 -89.536312 46 34778ft 430kts
11-Oct-18 10:48 40.013969 -89.419766 46 34780ft 430kts
11-Oct-18 10:49 40.092033 -89.303673 47 34778ft 430kts
11-Oct-18 10:50 40.169669 -89.187669 47 34774ft 430kts
11-Oct-18 10:51 40.247911 -89.070240 47 34777ft 430kts
11-Oct-18 10:52 40.325938 -88.952597 47 34777ft 430kts
11-Oct-18 10:53 40.404259 -88.834015 47 34780ft 430kts
11-Oct-18 10:54 40.482205 -88.715411 47 34779ft 430kts
11-Oct-18 10:55 40.559935 -88.596638 47 34779ft 430kts
11-Oct-18 10:56 40.637731 -88.477250 47 34783ft 430kts
11-Oct-18 10:57 40.715236 -88.357772 47 34777ft 430kts
11-Oct-18 10:58 40.789967 -88.242124 48 34778ft 430kts
11-Oct-18 10:59 40.867089 -88.122224 48 34778ft 430kts
11-Oct-18 11:00 40.944301 -88.001643 48 34775ft 430kts
11-Oct-18 11:01 41.021318 -87.880816 48 34780ft 430kts
11-Oct-18 11:02 41.098069 -87.759917 48 34781ft 430kts
11-Oct-18 11:03 41.172654 -87.641949 48 34778ft 430kts
11-Oct-18 11:04 41.249319 -87.520161 48 34781ft 431kts
11-Oct-18 11:05 41.325718 -87.398299 48 34780ft 430kts
11-Oct-18 11:06 41.399404 -87.280300 49 34779ft 430kts
11-Oct-18 11:07 41.475427 -87.158075 48 34775ft 431kts
11-Oct-18 11:08 41.551283 -87.035529 49 34781ft 430kts
11-Oct-18 11:09 41.627131 -86.912502 49 34777ft 431kts
11-Oct-18 11:10 41.703012 -86.788921 49 34776ft 431kts
11-Oct-18 11:11 41.766048 -86.685868 49 34783ft 431kts
11-Oct-18 11:12 41.854341 -86.540888 49 34782ft 430kts
11-Oct-18 11:13 41.917354 -86.437035 49 34783ft 431kts
11-Oct-18 11:14 41.991596 -86.314166 49 34777ft 431kts
11-Oct-18 11:15 42.079588 -86.168022 49 34778ft 431kts
11-Oct-18 11:16 42.141292 -86.065105 49 34774ft 431kts
11-Oct-18 11:17 42.216281 -85.939534 49 34779ft 431kts
11-Oct-18 11:18 42.291143 -85.813639 49 34780ft 431kts
11-Oct-18 11:19 42.365682 -85.687761 49 34779ft 431kts
11-Oct-18 11:20 42.440282 -85.561298 49 34779ft 431kts
11-Oct-18 11:21 42.514964 -85.434146 49 34778ft 431kts
11-Oct-18 11:22 42.587936 -85.309466 50 34776ft 431kts
11-Oct-18 11:23 42.662189 -85.182191 50 34776ft 431kts
11-Oct-18 11:24 42.748090 -85.070189 40 34774ft 429kts
11-Oct-18 11:25 42.835782 -84.960196 41 34779ft 429kts
11-Oct-18 11:26 42.923411 -84.849530 41 34776ft 429kts
11-Oct-18 11:27 43.010670 -84.738880 41 34778ft 429kts
11-Oct-18 11:28 43.097732 -84.627988 41 34776ft 429kts
11-Oct-18 11:29 43.183993 -84.517659 41 34780ft 430kts
11-Oct-18 11:30 43.271233 -84.405673 41 34780ft 429kts
11-Oct-18 11:31 43.357366 -84.294598 41 34777ft 430kts
11-Oct-18 11:32 43.444177 -84.182185 41 34776ft 430kts
11-Oct-18 11:33 43.530895 -84.069432 41 34778ft 430kts
11-Oct-18 11:34 43.618509 -83.955062 41 32619ft 439kts
11-Oct-18 11:35 43.715466 -83.869451 353 29899ft 397kts
11-Oct-18 11:36 43.773781 -83.961686 257 27599ft 338kts
11-Oct-18 11:37 43.700258 -84.026526 194 24153ft 344kts
11-Oct-18 11:38 43.608308 -84.050525 194 20970ft 328kts
11-Oct-18 11:39 43.523345 -84.074506 199 18728ft 294kts
11-Oct-18 11:40 43.471849 -84.009454 79 16035ft 318kts
11-Oct-18 11:41 43.540586 -83.952555 2 12414ft 318kts
11-Oct-18 11:42 43.617325 -83.967555 297 9271ft 257kts
11-Oct-18 11:43 43.585260 -84.027464 195 6925ft 232kts
11-Oct-18 11:44 43.534331 -83.983081 134 4647ft 230kts
11-Oct-18 11:45 43.543162 -83.910688 45 2743ft 219kts
11-Oct-18 11:46 43.585682 -83.904808 315 1827ft 136kts
11-Oct-18 11:47 43.596443 -83.950605 275 1872ft 127kts
11-Oct-18 11:48 43.591144 -83.997485 233 1868ft 128kts
11-Oct-18 11:49 43.566809 -84.033048 230 1349ft 123kts
11-Oct-18 11:50 43.543852 -84.065325 230 718ft 118kts
11-Oct-18 11:51 43.531362 -84.084291 308 667ft 21kts
11-Oct-18 11:52 43.534424 -84.089118 266 670ft 7kts
11-Oct-18 11:53 43.534332 -84.089373 225 670ft 0kts
11-Oct-18 11:54 43.534332 -84.089373 225 670ft 0kts
11-Oct-18 11:55 43.534332 -84.089373 225 670ft 0kts
11-Oct-18 11:56 43.534332 -84.089373 225 670ft 0kts
11-Oct-18 11:57 43.534332 -84.089373 225 670ft 0kts

Navigation Log

Ident Type
Flight plan parsing failed, navigation log unavailable